Submittal Forms
Current Contests
Recent Contests

Club Activity Tracker - Arizona Outlaws Contest Club (from club selection on form)

Recent postings for the selected club or group are listed below. Other than the call used, all calls listed are only those associated with the club or group. Click on a call to see the details of the posting.
Status Key: new=new posting, update=update prior posting, move=change club/group, delete=delete prior posting.

Sort by   for past

TimestampCallContestClassPowerScoreStatus
2020-05-26 03:05:08AA4LSWWSACSOAB-YouthLP10,260new5606
2020-05-22 03:03:27AA7VNCCC SprintSingle OpLP1,911new5598
2020-05-21 04:34:33N7RDCWopsTSingle OpLP1,296new5594
2020-05-21 03:46:41KE6KCWopsTSingle OpLP1,225new5594
2020-05-20 23:02:21W6RLLCWopsTSingle OpHP529new5593
2020-05-20 20:02:50AA4LSCWopsTSingle OpLP33,540new5593
2020-05-20 19:46:29KE6KCWopsTSingle OpLP225new5593
2020-05-20 19:45:31KE6KCWopsTSingle OpLP196new5592
2020-05-20 14:03:57AA4LSCWopsTSingle OpLP1,764new5592
2020-05-19 18:56:25N9NAKing of Spain CWSOSB/20HP2,822new5583
 
2020-05-19 18:03:09N7GPWWSACSOAB-OMHP13,770new5587
2020-05-19 16:27:06N9NAUNDXSO CWHP1,504new5582
2020-05-17 21:35:02W9CF(K8IA)King of Spain CWSOSB/20HP3,807new5583
2020-05-17 15:00:02K7WPVolta RTTYSOABHP5,986,992new5563
2020-05-17 14:35:37K7WPKing of Spain CWSOSB/20HP4,403new5583
2020-05-17 14:01:52W6RLLHamventionSingle OpLP104new5569
2020-05-17 00:36:46K7AZTHamventionSingle OpLP67new5569
2020-05-16 23:28:14K7JQHamventionSingle OpHP320new5569
2020-05-15 03:07:58AA7VNCCC SprintSingle OpLP1,344new5580
2020-05-14 04:06:14N9NACWopsTSingle OpHP3,538new5576
 
2020-05-14 04:03:19KE6KCWopsTSingle OpLP2,304new5576
2020-05-13 22:36:47W6RLLCWopsTSingle OpHP2,209new5575
2020-05-13 20:04:15KE6KCWopsTSingle OpLP900new5575
2020-05-13 20:03:33K6LLCWopsTSingle OpHP27,225new5575
2020-05-13 20:02:03KE6KCWopsTSingle OpLP144new5574
2020-05-12 19:00:53N7GPWWSACSOAB-OMHP426new5568
2020-05-12 02:12:59AA4LSWWSACSOAB-YouthLP765new5568
2020-05-10 18:12:14W6RLLCQ-MSOSB/20CWHP4,675new5564
2020-05-10 17:00:21N9NACQ-MSOABCWHP11,720new5564
2020-05-10 15:58:39K7JQCQ-MSOSB/20CWHP6,966new5564
 
2020-05-10 13:31:06K8IACQ-MSOABCWHP112,941new5564
2020-05-10 04:15:46WO7R50SprngSprntSingle OpHP135new5567
2020-05-10 03:44:09W8AEF50SprngSprntSingle OpLP65new5567
2020-05-10 03:05:06W6RW50SprngSprntSingle OpLP128new5567
2020-05-09 01:43:41W7MRF(KW7MM)7QPSO(A)SSBHP183,872new5544
2020-05-08 03:02:07AA7VNCCC SprintSingle OpLP918new5562
2020-05-07 13:50:43W6RLLCWopsTSingle OpLP1,156new5558
2020-05-07 04:02:13KE6KCWopsTSingle OpLP4,270new5559
2020-05-07 00:45:35K7NJ7QPSO(A)CWHP261,300update5544
2020-05-07 00:18:22NR7T7QPCnty Exped SOHP208,320new5544
 
2020-05-06 20:03:33KE6KCWopsTSingle OpLP700new5558
2020-05-06 20:02:59K6LLCWopsTSingle OpHP28,900new5558
2020-05-06 19:43:37N7RDCWopsTSingle OpLP1,225new5558
2020-05-06 18:00:44W7CXX(WA7LNW)7QPSO(A)MixedLP307,597new5544
2020-05-06 13:55:27AA4LSCWopsTSingle OpLP100new5557
2020-05-04 15:07:04KK7ACInQPSingle OpLP860new5545
2020-05-04 09:46:56N6HI7QPSOMixedQRP2,160new5544
2020-05-04 03:46:35N7AInQPM/MHP2,700new5545
 (KY7M,N7A,KC7V,NA2U,AA7A,@NA7TB)
2020-05-03 23:48:53KE6K7QPSOMixedLP5,776new5544
2020-05-03 23:46:45N7T(AG7GB,AE7VA,@N7NWL)7QPCnty Exped M/MHP119,358new5544
 
2020-05-03 22:44:03KK7AC7QPSOSSBLP130,540new5544
2020-05-03 19:10:56N7IR7QPSOCWLP23,760new5544
2020-05-03 17:38:51N7LR7QPM/SHP22,455new5544
 (W9CF,@N7LR)
2020-05-03 17:14:44N1AV7QPSOSSBHP17,640new5544
2020-05-03 16:33:13K7W(K6WSC)7QPSOCWHP200,265new5544
2020-05-03 15:52:57K7M(@K6LL)7QPSO(A)MixedHP375,768new5544
2020-05-03 15:49:34N7A7QPM/MHP493,476update5544
 (AA7A,KY7M,KC7V,N7A,NA2U,@NA7TB)
2020-05-03 15:48:40K7V(@AA7V)7QPSOCWHP252,960new5544
2020-05-03 15:35:52N7GP7QPSOSSBHP202,608new5544
2020-05-03 14:53:59KE2VB7QPSOCWHP102,060new5544
 
2020-05-03 14:39:55N7RD7QPSOCWLP33,810new5544
2020-05-03 14:07:09K7AZT7QPSOCWLP66,144new5544
2020-05-03 13:26:24NU7Y7QPSO(A)CWQRP51,156new5544
2020-05-03 13:20:17N7AT7QPM/SHP325,128new5544
 (K8IA,N7AT,@N7RQ)
2020-05-03 13:17:07N9NA7QPSO(A)MixedHP34,874new5544
2020-05-03 12:56:38N7CW7QPSOCWHP254,184new5544
2020-05-03 12:51:54K7WP7QPSO(A)CWHP154,194new5544
2020-05-03 12:35:45WU9B7QPSO(A)CWHP10,764new5544
2020-05-03 07:17:38ND7K(@N6WIN)7QPSO(A)CWHP316,200new5544
2020-05-03 07:13:10NG7M7QPM/SHP369,376new5544
 (W7CT,@NG7M)
 
2020-05-03 07:07:14N7QQ(@W6RW)7QPSO(A)CWLP249,039new5544
2020-05-03 06:04:41KB7AZ7QPCnty Exped SOLP2,916new5544
2020-05-03 05:28:45WA7AN(K9DR)7QPSO(A)CWHP216,255new5544
2020-05-03 01:19:24K7JQ7QPSOMixedHP123,194new5544
2020-05-01 03:03:29K7V(@AA7V)NCCC SprintSingle OpLP1,080new5540
2020-04-30 04:04:28KE6KCWopsTSingle OpLP4,489new5537
2020-04-30 04:02:43N7RDCWopsTSingle OpLP1,296new5537
2020-04-29 20:03:49K6LLCWopsTSingle OpHP27,225new5536
2020-04-29 20:03:07KE6KCWopsTSingle OpLP484new5536
2020-04-29 19:32:41W8TKCWopsTSingle OpLP5,184new5536
 
2020-04-29 14:05:59AA4LSCWopsTSingle OpHP14,742new5535
2020-04-28 18:03:45N9NAFlQPSOABMixedHP1,612new5529
2020-04-27 21:39:16KK7ACFlQPSOABSSBLP2,048new5529
2020-04-27 14:47:53N7CWFlQPSOAB(A)CWLP23,520update5529
2020-04-27 00:42:28W9CFFlQPSOABCWLP60new5529
2020-04-27 00:00:28KO7SSBARTG 75Single OpHP1,173new5522
2020-04-26 23:44:25KO7SSSPDX RTTYSOABHP346,680new5520
2020-04-26 23:17:42K4YL(W8RA)FlQPSOABMixedHP565,461new5529
2020-04-26 23:17:31K7WPSPDX RTTYSOABHP66,555new5520
2020-04-26 23:04:12K7WPFlQPSOAB(A)CWHP10,250new5529
 
2020-04-26 22:41:21W7CXX(WA7LNW)FlQPSOAB(A)MixedHP5,054new5529
2020-04-26 22:37:59K7JQFlQPSOAB(A)MixedHP24,050new5529
2020-04-26 22:37:14N7IRFlQPSOABCWLP16,048new5529
2020-04-26 22:07:55AA7VFlQPSOABMixedHP29,736new5529
2020-04-26 22:02:14K7AZTFlQPSOABCWLP2,280new5529
2020-04-26 20:24:21K8IAFlQPSOAB(A)CWLP5,600update5529
2020-04-26 18:45:36NA2U(@NA7TB)FlQPSOABMixedHP7,998new5529
2020-04-26 14:50:40NG7MSPDX RTTYSOABHP68,526new